createdAt,value
2022-12-31T00:01:49.231Z,12.40
2022-12-31T00:04:16.193Z,12.50
2022-12-31T00:06:42.910Z,12.50
2022-12-31T00:09:10.951Z,12.60
2022-12-31T00:11:38.703Z,12.50
2022-12-31T00:14:06.276Z,12.50
2022-12-31T00:16:36.845Z,12.40
2022-12-31T00:19:06.823Z,12.40
2022-12-31T00:21:34.711Z,12.50
2022-12-31T00:24:02.425Z,12.50
2022-12-31T00:26:31.122Z,12.40
2022-12-31T00:28:59.285Z,12.50
2022-12-31T00:31:27.296Z,12.50
2022-12-31T00:33:54.226Z,12.40
2022-12-31T00:36:23.517Z,12.50
2022-12-31T00:38:52.413Z,12.50
2022-12-31T00:41:20.067Z,12.50
2022-12-31T00:43:47.094Z,12.40
2022-12-31T00:46:14.631Z,12.50
2022-12-31T00:48:41.514Z,12.40
2022-12-31T00:51:11.182Z,12.50
2022-12-31T00:53:38.981Z,12.40
2022-12-31T00:56:10.252Z,12.50
2022-12-31T00:58:37.226Z,12.50
2022-12-31T01:01:34.890Z,12.50
2022-12-31T01:04:08.062Z,12.40
2022-12-31T01:06:35.250Z,12.40
2022-12-31T01:09:02.009Z,12.40
2022-12-31T01:11:31.506Z,12.50
2022-12-31T01:14:01.518Z,12.50
2022-12-31T01:16:34.609Z,12.50
2022-12-31T01:19:04.484Z,12.50
2022-12-31T01:21:31.988Z,12.60
2022-12-31T01:23:59.570Z,12.50
2022-12-31T01:26:27.207Z,12.50
2022-12-31T01:28:53.920Z,12.60
2022-12-31T01:31:22.237Z,12.60
2022-12-31T01:33:48.954Z,12.60
2022-12-31T01:36:25.665Z,12.60
2022-12-31T01:38:54.479Z,12.70
2022-12-31T01:41:23.591Z,12.70
2022-12-31T01:43:55.767Z,12.60
2022-12-31T01:46:42.731Z,12.60
2022-12-31T01:49:41.912Z,12.70
2022-12-31T01:52:24.988Z,12.80
2022-12-31T01:54:56.538Z,12.80
2022-12-31T01:57:25.800Z,12.90
2022-12-31T01:59:54.230Z,12.90
2022-12-31T02:02:21.056Z,13.00
2022-12-31T02:04:50.933Z,13.10
2022-12-31T02:07:17.688Z,13.10
2022-12-31T02:09:44.798Z,13.10
2022-12-31T02:12:11.926Z,13.10
2022-12-31T02:14:46.167Z,13.20
2022-12-31T02:17:34.411Z,13.20
2022-12-31T02:20:43.224Z,13.20
2022-12-31T02:23:15.930Z,13.30
2022-12-31T02:26:04.149Z,13.30
2022-12-31T02:29:08.302Z,13.30
2022-12-31T02:31:42.052Z,13.20
2022-12-31T02:34:13.559Z,13.30
2022-12-31T02:36:44.412Z,13.30
2022-12-31T02:39:13.408Z,13.40
2022-12-31T02:41:52.255Z,13.50
2022-12-31T02:44:24.610Z,13.40
2022-12-31T02:47:07.780Z,13.50
2022-12-31T02:49:53.292Z,13.60
2022-12-31T02:52:35.266Z,13.70
2022-12-31T02:55:17.956Z,13.70
2022-12-31T02:57:53.089Z,13.70
2022-12-31T03:00:39.090Z,13.70
2022-12-31T03:03:06.634Z,13.70
2022-12-31T03:05:37.560Z,13.80
2022-12-31T03:08:04.371Z,13.80
2022-12-31T03:10:31.046Z,13.80
2022-12-31T03:12:58.986Z,13.80
2022-12-31T03:15:29.810Z,14.00
2022-12-31T03:18:17.335Z,14.00
2022-12-31T03:21:10.289Z,13.90
2022-12-31T03:23:39.822Z,13.90
2022-12-31T03:26:13.121Z,13.90
2022-12-31T03:28:41.706Z,13.80
2022-12-31T03:31:08.839Z,13.80
2022-12-31T03:33:41.291Z,13.80
2022-12-31T03:36:11.169Z,13.90
2022-12-31T03:38:37.923Z,13.80
2022-12-31T03:41:04.765Z,13.80
2022-12-31T03:43:31.434Z,13.80
2022-12-31T03:46:01.684Z,13.90
2022-12-31T03:48:28.756Z,13.90
2022-12-31T03:50:55.433Z,13.90
2022-12-31T03:53:22.850Z,13.90
2022-12-31T03:55:53.510Z,13.80
2022-12-31T03:58:21.430Z,13.90
2022-12-31T04:00:48.204Z,13.90
2022-12-31T04:03:15.059Z,13.90
2022-12-31T04:05:41.795Z,13.90
2022-12-31T04:08:08.462Z,13.90
2022-12-31T04:10:35.125Z,14.00
2022-12-31T04:13:04.520Z,13.90
2022-12-31T04:15:31.710Z,13.80
2022-12-31T04:17:58.346Z,13.90
2022-12-31T04:20:25.129Z,13.90
2022-12-31T04:22:51.829Z,14.10
2022-12-31T04:25:18.543Z,14.10
2022-12-31T04:27:45.328Z,14.10
2022-12-31T04:30:13.637Z,14.00
2022-12-31T04:32:41.095Z,14.00
2022-12-31T04:35:08.784Z,14.10
2022-12-31T04:37:35.686Z,14.20
2022-12-31T04:40:06.138Z,14.10
2022-12-31T04:42:34.166Z,14.10
2022-12-31T04:45:00.873Z,14.10
2022-12-31T04:47:28.069Z,14.10
2022-12-31T04:49:54.773Z,14.10
2022-12-31T04:52:21.679Z,14.00
2022-12-31T04:54:48.336Z,14.10
2022-12-31T04:57:15.132Z,14.10
2022-12-31T04:59:41.899Z,14.10
2022-12-31T05:02:08.732Z,14.10
2022-12-31T05:04:35.538Z,14.20
2022-12-31T05:07:02.206Z,14.20
2022-12-31T05:09:28.995Z,14.30
2022-12-31T05:11:55.656Z,14.30
2022-12-31T05:14:22.666Z,14.40
2022-12-31T05:16:49.495Z,14.40
2022-12-31T05:19:16.369Z,14.30
2022-12-31T05:21:43.159Z,14.50
2022-12-31T05:24:09.858Z,14.50
2022-12-31T05:26:36.469Z,14.40
2022-12-31T05:29:03.169Z,14.50
2022-12-31T05:31:29.888Z,14.40
2022-12-31T05:33:56.772Z,14.40
2022-12-31T05:36:23.472Z,14.50
2022-12-31T05:38:50.147Z,14.40
2022-12-31T05:41:16.876Z,14.40
2022-12-31T05:43:43.543Z,14.40
2022-12-31T05:46:10.280Z,14.40
2022-12-31T05:48:36.966Z,14.50
2022-12-31T05:51:03.725Z,14.40
2022-12-31T05:53:30.369Z,14.40
2022-12-31T05:55:57.120Z,14.50
2022-12-31T05:58:23.838Z,14.50
2022-12-31T06:00:52.223Z,14.60
2022-12-31T06:03:19.156Z,14.50
2022-12-31T06:05:46.002Z,14.60
2022-12-31T06:08:12.988Z,14.60
2022-12-31T06:10:41.449Z,14.70
2022-12-31T06:13:08.677Z,14.70
2022-12-31T06:15:39.193Z,14.70
2022-12-31T06:18:06.630Z,14.70
2022-12-31T06:20:33.763Z,14.70
2022-12-31T06:23:00.523Z,14.70
2022-12-31T06:25:27.287Z,14.60
2022-12-31T06:27:54.063Z,14.80
2022-12-31T06:30:20.797Z,14.90
2022-12-31T06:32:47.430Z,14.70
2022-12-31T06:35:14.382Z,14.80
2022-12-31T06:37:41.076Z,14.90
2022-12-31T06:40:08.359Z,14.80
2022-12-31T06:42:35.404Z,14.80
2022-12-31T06:45:02.053Z,14.80
2022-12-31T06:47:28.895Z,14.80
2022-12-31T06:49:55.771Z,14.90
2022-12-31T06:52:22.712Z,15.00
2022-12-31T06:54:49.599Z,15.00
2022-12-31T06:57:16.520Z,14.90
2022-12-31T06:59:44.806Z,14.90
2022-12-31T07:02:30.984Z,15.00
2022-12-31T07:05:22.448Z,14.90
2022-12-31T07:08:27.038Z,15.20
2022-12-31T07:11:20.764Z,15.10
2022-12-31T07:14:00.152Z,15.00
2022-12-31T07:16:29.877Z,15.10
2022-12-31T07:19:32.263Z,15.20
2022-12-31T07:21:59.777Z,15.20
2022-12-31T07:24:27.119Z,15.20
2022-12-31T07:27:20.868Z,15.10
2022-12-31T07:29:59.794Z,15.20
2022-12-31T07:32:38.267Z,15.20
2022-12-31T07:35:20.159Z,15.00
2022-12-31T07:37:58.408Z,15.20
2022-12-31T07:40:53.532Z,15.20
2022-12-31T07:43:39.676Z,15.10
2022-12-31T07:46:31.538Z,15.00
2022-12-31T07:48:59.083Z,15.00
2022-12-31T07:51:26.575Z,15.00
2022-12-31T07:53:53.248Z,15.00
2022-12-31T07:56:19.970Z,15.10
2022-12-31T07:59:03.767Z,15.20
2022-12-31T08:01:33.747Z,15.20
2022-12-31T08:04:18.792Z,15.20
2022-12-31T08:07:11.432Z,15.00
2022-12-31T08:10:00.825Z,15.00
2022-12-31T08:12:31.096Z,15.00
2022-12-31T08:14:57.972Z,15.00
2022-12-31T08:17:24.998Z,15.00
2022-12-31T08:19:52.023Z,14.90
2022-12-31T08:22:52.879Z,14.90
2022-12-31T08:25:23.740Z,15.10
2022-12-31T08:28:24.749Z,15.10
2022-12-31T08:31:05.432Z,15.10
2022-12-31T08:34:03.850Z,15.00
2022-12-31T08:36:48.920Z,15.00
2022-12-31T08:39:46.360Z,15.00
2022-12-31T08:42:37.307Z,15.10
2022-12-31T08:45:28.557Z,15.00
2022-12-31T08:48:03.755Z,15.00
2022-12-31T08:50:30.973Z,15.00
2022-12-31T08:52:58.158Z,15.10
2022-12-31T08:55:25.366Z,15.00
2022-12-31T08:58:07.557Z,15.10
2022-12-31T09:00:36.071Z,15.10
2022-12-31T09:03:24.466Z,15.10
2022-12-31T09:06:00.507Z,15.10
2022-12-31T09:08:40.814Z,15.20
2022-12-31T09:11:31.017Z,15.20
2022-12-31T09:14:25.422Z,15.20
2022-12-31T09:17:01.167Z,15.20
2022-12-31T09:19:28.017Z,15.30
2022-12-31T09:21:55.505Z,15.30
2022-12-31T09:24:22.527Z,15.30
2022-12-31T09:26:56.603Z,15.30
2022-12-31T09:29:53.816Z,15.30
2022-12-31T09:32:48.614Z,15.40
2022-12-31T09:35:39.387Z,15.40
2022-12-31T09:38:29.953Z,15.40
2022-12-31T09:41:12.529Z,15.40
2022-12-31T09:44:01.159Z,15.50
2022-12-31T09:47:06.597Z,15.50
2022-12-31T09:50:07.221Z,15.50
2022-12-31T09:52:39.632Z,15.60
2022-12-31T09:55:12.683Z,15.60
2022-12-31T09:58:16.973Z,15.60
2022-12-31T10:00:52.186Z,15.60
2022-12-31T10:03:52.666Z,15.70
2022-12-31T10:06:28.192Z,15.70
2022-12-31T10:09:13.678Z,15.70
2022-12-31T10:12:17.155Z,15.70
2022-12-31T10:15:12.632Z,15.80
2022-12-31T10:17:49.359Z,15.80
2022-12-31T10:20:22.052Z,15.80
2022-12-31T10:23:23.962Z,15.80
2022-12-31T10:26:06.187Z,15.80
2022-12-31T10:28:52.049Z,15.80
2022-12-31T10:31:49.521Z,16.00
2022-12-31T10:34:25.562Z,16.00
2022-12-31T10:36:58.005Z,16.10
2022-12-31T10:39:39.535Z,16.20
2022-12-31T10:42:18.136Z,16.00
2022-12-31T10:45:09.011Z,16.00
2022-12-31T10:48:07.877Z,16.10
2022-12-31T10:50:56.178Z,16.10
2022-12-31T10:53:36.097Z,16.20
2022-12-31T10:56:40.277Z,16.20
2022-12-31T10:59:50.131Z,16.30
2022-12-31T11:02:48.413Z,16.30
2022-12-31T11:05:27.079Z,16.30
2022-12-31T11:08:02.702Z,16.30
2022-12-31T11:10:49.416Z,16.30
2022-12-31T11:13:40.805Z,16.40
2022-12-31T11:16:23.756Z,16.40
2022-12-31T11:19:10.534Z,16.50
2022-12-31T11:22:14.920Z,16.60
2022-12-31T11:25:21.052Z,16.60
2022-12-31T11:28:16.633Z,16.70
2022-12-31T11:31:11.111Z,16.70
2022-12-31T11:34:00.649Z,16.80
2022-12-31T11:36:36.146Z,16.80
2022-12-31T11:39:46.412Z,16.90
2022-12-31T11:42:40.719Z,17.10
2022-12-31T11:45:54.080Z,17.10
2022-12-31T11:48:44.675Z,17.00
2022-12-31T11:51:36.691Z,17.10
2022-12-31T11:54:18.492Z,17.20
2022-12-31T11:56:51.259Z,17.20
2022-12-31T11:59:19.775Z,17.20
2022-12-31T12:02:26.095Z,17.10
2022-12-31T12:04:55.108Z,17.10
2022-12-31T12:07:24.044Z,17.10
2022-12-31T12:09:53.127Z,17.10
2022-12-31T12:12:20.047Z,17.10
2022-12-31T12:14:52.582Z,17.10
2022-12-31T12:17:32.215Z,17.10
2022-12-31T12:20:05.699Z,17.10
2022-12-31T12:22:32.701Z,17.20
2022-12-31T12:25:05.485Z,17.10
2022-12-31T12:27:34.487Z,17.10
2022-12-31T12:30:20.378Z,17.20
2022-12-31T12:32:54.012Z,17.30
2022-12-31T12:35:26.473Z,17.40
2022-12-31T12:38:01.704Z,17.50
2022-12-31T12:40:33.778Z,17.70
2022-12-31T12:43:02.169Z,17.70
2022-12-31T12:45:51.832Z,17.70
2022-12-31T12:48:43.891Z,17.60
2022-12-31T12:51:37.089Z,17.80
2022-12-31T12:54:38.999Z,18.00
2022-12-31T12:57:16.408Z,18.00
2022-12-31T13:00:00.078Z,18.00
2022-12-31T13:03:02.499Z,18.10
2022-12-31T13:05:45.035Z,18.10
2022-12-31T13:08:26.764Z,18.10
2022-12-31T13:11:03.058Z,18.20
2022-12-31T13:13:56.823Z,18.10
2022-12-31T13:16:43.187Z,18.30
2022-12-31T13:19:24.723Z,18.20
2022-12-31T13:22:03.613Z,18.30
2022-12-31T13:24:50.838Z,18.30
2022-12-31T13:27:38.932Z,18.20
2022-12-31T13:30:19.286Z,18.10
2022-12-31T13:32:52.102Z,18.00
2022-12-31T13:35:18.710Z,17.90
2022-12-31T13:37:46.948Z,18.00
2022-12-31T13:40:55.281Z,17.90
2022-12-31T13:43:58.386Z,17.90
2022-12-31T13:46:52.464Z,17.90
2022-12-31T13:49:27.015Z,17.90
2022-12-31T13:52:18.005Z,18.00
2022-12-31T13:54:55.998Z,17.90
2022-12-31T13:57:43.846Z,17.90
2022-12-31T14:00:19.638Z,17.90
2022-12-31T14:03:03.165Z,17.90
2022-12-31T14:05:46.869Z,17.90
2022-12-31T14:08:13.616Z,17.80
2022-12-31T14:11:04.741Z,17.80
2022-12-31T14:14:00.159Z,17.80
2022-12-31T14:16:39.339Z,17.70
2022-12-31T14:19:33.264Z,17.70
2022-12-31T14:22:03.171Z,17.60
2022-12-31T14:24:47.713Z,17.50
2022-12-31T14:27:29.822Z,17.50
2022-12-31T14:30:07.282Z,17.50
2022-12-31T14:33:09.407Z,17.40
2022-12-31T14:35:57.335Z,17.40
2022-12-31T14:38:54.859Z,17.30
2022-12-31T14:41:37.107Z,17.30
2022-12-31T14:44:26.959Z,17.20
2022-12-31T14:46:53.567Z,17.30
2022-12-31T14:49:41.278Z,17.30
2022-12-31T14:52:26.506Z,17.30
2022-12-31T14:55:09.215Z,17.30
2022-12-31T14:58:17.143Z,17.30
2022-12-31T15:00:27.642Z,17.20
2022-12-31T15:03:01.202Z,17.10
2022-12-31T15:05:34.159Z,17.10
2022-12-31T15:08:25.896Z,17.10
2022-12-31T15:11:27.259Z,17.00
2022-12-31T15:14:30.948Z,17.00
2022-12-31T15:17:04.956Z,17.00
2022-12-31T15:20:05.282Z,16.90
2022-12-31T15:22:48.189Z,17.00
2022-12-31T15:25:41.198Z,16.90
2022-12-31T15:28:42.231Z,16.80
2022-12-31T15:31:18.885Z,16.80
2022-12-31T15:34:07.617Z,16.70
2022-12-31T15:36:39.333Z,16.70
2022-12-31T15:39:25.682Z,16.60
2022-12-31T15:42:36.105Z,16.60
2022-12-31T15:44:51.770Z,16.60
2022-12-31T15:47:34.466Z,16.60
2022-12-31T15:50:06.550Z,16.40
2022-12-31T15:52:44.781Z,16.50
2022-12-31T15:55:22.281Z,16.40
2022-12-31T15:57:50.549Z,16.40
2022-12-31T16:00:22.506Z,16.30
2022-12-31T16:02:53.708Z,16.30
2022-12-31T16:05:26.474Z,16.30
2022-12-31T16:07:55.956Z,16.20
2022-12-31T16:10:29.313Z,16.20
2022-12-31T16:12:58.334Z,16.30
2022-12-31T16:15:29.202Z,16.20
2022-12-31T16:18:01.655Z,16.10
2022-12-31T16:20:30.943Z,15.90
2022-12-31T16:23:00.162Z,15.90
2022-12-31T16:25:31.543Z,15.80
2022-12-31T16:27:59.078Z,15.90
2022-12-31T16:30:32.057Z,15.80
2022-12-31T16:33:14.264Z,15.90
2022-12-31T16:35:40.928Z,15.90
2022-12-31T16:38:10.548Z,15.90
2022-12-31T16:40:37.795Z,15.90
2022-12-31T16:43:04.473Z,15.90
2022-12-31T16:45:36.462Z,15.80
2022-12-31T16:48:23.717Z,15.80
2022-12-31T16:50:54.552Z,15.80
2022-12-31T16:53:26.072Z,15.80
2022-12-31T16:56:11.255Z,15.80
2022-12-31T16:58:42.772Z,15.70
2022-12-31T17:01:23.307Z,15.70
2022-12-31T17:04:15.330Z,15.80
2022-12-31T17:06:42.969Z,15.90
2022-12-31T17:09:30.745Z,15.90
2022-12-31T17:12:15.541Z,15.90
2022-12-31T17:14:51.120Z,16.00
2022-12-31T17:17:23.556Z,16.10
2022-12-31T17:19:58.966Z,16.10
2022-12-31T17:22:42.810Z,16.10
2022-12-31T17:25:27.910Z,16.20
2022-12-31T17:28:05.268Z,16.20
2022-12-31T17:30:35.156Z,16.10
2022-12-31T17:33:04.124Z,16.10
2022-12-31T17:35:42.110Z,16.00
2022-12-31T17:38:18.399Z,16.10
2022-12-31T17:40:51.630Z,16.00
2022-12-31T17:43:23.660Z,16.00
2022-12-31T17:45:54.644Z,16.00
2022-12-31T17:48:24.912Z,16.00
2022-12-31T17:50:53.611Z,16.10
2022-12-31T17:53:20.411Z,16.10
2022-12-31T17:55:56.439Z,16.10
2022-12-31T17:58:29.145Z,16.10
2022-12-31T18:00:56.513Z,16.00
2022-12-31T18:03:23.224Z,16.00
2022-12-31T18:05:50.301Z,15.90
2022-12-31T18:08:16.976Z,15.90
2022-12-31T18:10:44.865Z,16.00
2022-12-31T18:13:18.230Z,16.00
2022-12-31T18:15:45.298Z,15.90
2022-12-31T18:18:25.504Z,15.90
2022-12-31T18:21:02.917Z,15.80
2022-12-31T18:23:35.795Z,15.70
2022-12-31T18:26:02.479Z,15.70
2022-12-31T18:28:29.319Z,15.70
2022-12-31T18:30:56.144Z,15.70
2022-12-31T18:33:25.082Z,15.70
2022-12-31T18:36:09.944Z,15.60
2022-12-31T18:38:37.401Z,15.60
2022-12-31T18:41:05.160Z,15.50
2022-12-31T18:43:32.158Z,15.50
2022-12-31T18:45:59.205Z,15.60
2022-12-31T18:48:25.949Z,15.60
2022-12-31T18:50:52.719Z,15.60
2022-12-31T18:53:23.580Z,15.50
2022-12-31T18:55:51.746Z,15.50
2022-12-31T18:58:18.770Z,15.50
2022-12-31T19:00:47.078Z,15.50
2022-12-31T19:03:22.437Z,15.60
2022-12-31T19:05:51.011Z,15.50
2022-12-31T19:08:18.520Z,15.50
2022-12-31T19:10:45.840Z,15.60
2022-12-31T19:13:14.745Z,15.60
2022-12-31T19:15:46.203Z,15.50
2022-12-31T19:18:13.211Z,15.50
2022-12-31T19:20:41.133Z,15.50
2022-12-31T19:23:16.417Z,15.50
2022-12-31T19:25:43.621Z,15.50
2022-12-31T19:28:17.991Z,15.70
2022-12-31T19:30:45.158Z,15.80
2022-12-31T19:33:12.242Z,15.70
2022-12-31T19:35:40.047Z,15.60
2022-12-31T19:38:18.718Z,15.60
2022-12-31T19:40:46.401Z,15.50
2022-12-31T19:43:14.742Z,15.60
2022-12-31T19:45:42.715Z,15.60
2022-12-31T19:48:14.326Z,15.70
2022-12-31T19:50:46.350Z,15.70
2022-12-31T19:53:18.572Z,15.70
2022-12-31T19:55:45.467Z,15.60
2022-12-31T19:58:25.451Z,15.60
2022-12-31T20:00:58.246Z,15.50
2022-12-31T20:03:28.951Z,15.50
2022-12-31T20:06:07.907Z,15.40
2022-12-31T20:08:36.208Z,15.50
2022-12-31T20:11:17.448Z,15.50
2022-12-31T20:13:45.282Z,15.40
2022-12-31T20:16:14.214Z,15.40
2022-12-31T20:18:41.901Z,15.50
2022-12-31T20:21:11.381Z,15.40
2022-12-31T20:23:38.277Z,15.30
2022-12-31T20:26:05.247Z,15.30
2022-12-31T20:28:31.934Z,15.20
2022-12-31T20:30:58.804Z,15.10
2022-12-31T20:33:25.519Z,15.00
2022-12-31T20:35:52.158Z,15.00
2022-12-31T20:38:18.803Z,15.10
2022-12-31T20:40:47.136Z,15.00
2022-12-31T20:43:14.529Z,15.10
2022-12-31T20:45:41.671Z,15.00
2022-12-31T20:48:08.463Z,14.90
2022-12-31T20:50:35.372Z,14.90
2022-12-31T20:53:02.404Z,14.80
2022-12-31T20:55:30.708Z,14.90
2022-12-31T20:57:57.398Z,14.80
2022-12-31T21:00:24.233Z,14.90
2022-12-31T21:02:58.989Z,14.80
2022-12-31T21:05:31.028Z,14.70
2022-12-31T21:07:57.835Z,14.70
2022-12-31T21:10:24.491Z,14.70
2022-12-31T21:12:54.167Z,14.70
2022-12-31T21:15:21.502Z,14.80
2022-12-31T21:17:48.263Z,14.70
2022-12-31T21:20:15.084Z,14.90
2022-12-31T21:22:41.759Z,14.80
2022-12-31T21:25:09.711Z,14.70
2022-12-31T21:27:36.564Z,14.60
2022-12-31T21:30:19.755Z,14.80
2022-12-31T21:32:47.082Z,14.80
2022-12-31T21:38:01.832Z,14.90
2022-12-31T21:40:29.354Z,14.80
2022-12-31T21:42:56.287Z,14.80
2022-12-31T21:45:22.905Z,14.80
2022-12-31T21:48:08.416Z,14.80
2022-12-31T21:50:35.167Z,14.90
2022-12-31T21:53:01.899Z,14.80
2022-12-31T21:55:47.266Z,14.90
2022-12-31T21:58:31.754Z,14.90
2022-12-31T22:01:18.390Z,14.80
2022-12-31T22:03:45.562Z,14.80
2022-12-31T22:06:21.919Z,14.80
2022-12-31T22:08:54.375Z,14.70
2022-12-31T22:11:23.627Z,14.60
2022-12-31T22:13:51.393Z,14.50
2022-12-31T22:16:20.169Z,14.40
2022-12-31T22:18:47.666Z,14.50
2022-12-31T22:21:20.636Z,14.50
2022-12-31T22:23:52.814Z,14.40
2022-12-31T22:26:22.655Z,14.40
2022-12-31T22:28:50.126Z,14.40
2022-12-31T22:31:24.402Z,14.40
2022-12-31T22:33:51.306Z,14.40
2022-12-31T22:36:19.906Z,14.40
2022-12-31T22:38:47.259Z,14.40
2022-12-31T22:41:16.857Z,14.40
2022-12-31T22:43:46.527Z,14.30
2022-12-31T22:46:33.124Z,14.20
2022-12-31T22:49:01.188Z,14.30
2022-12-31T22:51:55.909Z,14.20
2022-12-31T22:54:15.796Z,14.20
2022-12-31T22:56:42.622Z,14.20
2022-12-31T22:59:09.585Z,14.30
2022-12-31T23:01:36.380Z,14.20
2022-12-31T23:04:04.208Z,14.20
2022-12-31T23:06:31.142Z,14.20
2022-12-31T23:09:16.286Z,14.20
2022-12-31T23:11:43.561Z,14.20
2022-12-31T23:14:34.800Z,14.20
2022-12-31T23:17:29.405Z,14.20
2022-12-31T23:20:18.103Z,14.20
2022-12-31T23:23:03.747Z,14.20
2022-12-31T23:25:36.975Z,14.20
2022-12-31T23:28:04.999Z,14.10
2022-12-31T23:30:31.881Z,14.10
2022-12-31T23:32:58.585Z,14.10
2022-12-31T23:35:25.411Z,14.00
2022-12-31T23:37:52.069Z,14.10
2022-12-31T23:40:21.794Z,14.10
2022-12-31T23:42:49.882Z,14.10
2022-12-31T23:45:16.544Z,14.10
2022-12-31T23:47:43.251Z,14.30
2022-12-31T23:50:10.057Z,14.30
2022-12-31T23:52:36.719Z,14.20
2022-12-31T23:55:03.757Z,14.20
2022-12-31T23:57:30.601Z,14.10
2022-12-31T23:59:57.376Z,14.10
